Time;durP1;ratioP1;P1;durP2;ratioP2;P2;SDS_P1;SDS_P2;PMS_P1;PMS_P2;Temp;Humidity;BMP_temperature;BMP_pressure;BME280_temperature;BME280_humidity;BME280_pressure;Samples;Min_cycle;Max_cycle;Signal;HPM_P1;HPM_P2
2021/12/17 00:00:59;;;;;;;;;;;;;;;22.09;22.61;98229.00;4998772;28;1152;-75
2021/12/17 00:03:35;;;;;;;;;;;;;;;22.15;22.82;98234.97;4997712;28;1081;-75
2021/12/17 00:08:35;;;;;;;;;;;;;;;21.46;23.63;98232.13;4977941;28;1969;-75
2021/12/17 00:11:01;;;;;;;;;;;;;;;21.46;23.38;98240.63;4991554;28;995;-75
2021/12/17 00:13:26;;;;;;;;;;;;;;;21.56;23.47;98239.59;4958728;29;1085;-75
2021/12/17 00:15:52;;;;;;;;;;;;;;;21.42;23.71;98235.03;4959042;29;1059;-75
2021/12/17 00:18:35;;;;;;;;;;;;;;;21.93;23.03;98229.03;4958842;29;962;-75
2021/12/17 00:40:28;;;;;;;;;;;;;;;21.62;23.06;98226.50;4997551;28;1112;-77
2021/12/17 00:48:36;;;;;;;;;;;;;;;21.67;23.48;98234.47;4977857;28;1019;-77
2021/12/17 00:53:50;;;;;;;;;;;;;;;21.78;23.34;98229.34;4958300;29;1291;-77
2021/12/17 00:56:15;;;;;;;;;;;;;;;21.53;23.28;98226.31;4940414;29;1009;-77
2021/12/17 00:58:41;;;;;;;;;;;;;;;21.82;23.33;98223.63;4938781;29;1465;-77
2021/12/17 01:01:06;;;;;;;;;;;;;;;21.89;23.12;98219.81;4923934;29;980;-77
2021/12/17 01:03:32;;;;;;;;;;;;;;;21.92;22.96;98222.56;4929686;29;1263;-76
2021/12/17 01:05:57;;;;;;;;;;;;;;;21.96;22.79;98216.78;4939197;29;1095;-77
2021/12/17 01:08:23;;;;;;;;;;;;;;;21.88;22.93;98218.22;4937994;29;1986;-77
2021/12/17 01:10:50;;;;;;;;;;;;;;;21.53;23.62;98217.81;4919820;29;1173;-77
2021/12/17 01:13:36;;;;;;;;;;;;;;;22.00;22.80;98206.16;4928579;29;1308;-76
2021/12/17 01:16:22;;;;;;;;;;;;;;;21.81;22.98;98205.81;4957626;29;1046;-77
2021/12/17 01:38:42;;;;;;;;;;;;;;;22.20;22.51;98192.72;4907004;29;962;-77
2021/12/17 01:41:02;;;;;;;;;;;;;;;21.92;22.90;98187.75;4919406;29;1028;-77
2021/12/17 01:43:29;;;;;;;;;;;;;;;22.00;22.77;98194.84;4937735;29;1439;-76
2021/12/17 01:45:55;;;;;;;;;;;;;;;22.00;22.88;98194.84;4922382;29;1427;-77
2021/12/17 01:48:27;;;;;;;;;;;;;;;21.64;23.54;98189.25;4937530;29;1131;-77
2021/12/17 01:56:49;;;;;;;;;;;;;;;21.94;22.88;98182.44;4900509;29;1283;-76
2021/12/17 01:59:22;;;;;;;;;;;;;;;21.76;23.46;98180.84;4850810;29;1288;-77
2021/12/17 02:01:48;;;;;;;;;;;;;;;21.97;23.10;98179.53;4824903;29;1480;-77
2021/12/17 02:04:13;;;;;;;;;;;;;;;22.02;22.79;98175.34;4789493;29;1033;-77
2021/12/17 02:06:39;;;;;;;;;;;;;;;21.97;23.03;98181.56;4826332;29;1264;-77
2021/12/17 02:29:01;;;;;;;;;;;;;;;21.88;23.07;98158.72;4846168;29;1899;-76
2021/12/17 02:31:29;;;;;;;;;;;;;;;21.58;23.66;98158.63;4858055;29;1531;-76
2021/12/17 02:34:01;;;;;;;;;;;;;;;22.03;22.92;98154.28;4842075;29;1265;-76
2021/12/17 02:36:30;;;;;;;;;;;;;;;21.91;23.19;98146.50;4880218;29;1093;-76
2021/12/17 02:39:12;;;;;;;;;;;;;;;21.93;23.11;98147.66;4843003;29;1712;-76
2021/12/17 02:47:15;;;;;;;;;;;;;;;21.71;23.16;98143.75;4843006;29;1009;-76
2021/12/17 02:49:42;;;;;;;;;;;;;;;22.07;22.76;98149.31;4843046;29;1977;-77
2021/12/17 02:52:07;;;;;;;;;;;;;;;22.02;22.99;98136.50;4777554;29;1177;-76
2021/12/17 02:54:34;;;;;;;;;;;;;;;21.78;23.33;98138.72;4785627;30;1164;-76
2021/12/17 02:56:59;;;;;;;;;;;;;;;21.87;23.40;98140.13;4804105;29;1222;-76
2021/12/17 02:59:25;;;;;;;;;;;;;;;21.70;23.36;98142.94;4822990;29;1170;-76
2021/12/17 03:01:50;;;;;;;;;;;;;;;21.66;23.38;98141.44;4879835;29;1170;-76
2021/12/17 03:04:18;;;;;;;;;;;;;;;21.64;23.54;98139.06;4883051;29;1010;-76
2021/12/17 03:06:44;;;;;;;;;;;;;;;22.13;22.70;98132.63;4898085;29;1274;-76
2021/12/17 03:09:10;;;;;;;;;;;;;;;22.02;22.94;98130.81;4891966;29;1990;-76
2021/12/17 03:11:35;;;;;;;;;;;;;;;21.93;23.12;98127.03;4858713;29;1070;-76
2021/12/17 03:14:01;;;;;;;;;;;;;;;21.94;22.99;98128.63;4879697;29;1048;-76
2021/12/17 03:16:39;;;;;;;;;;;;;;;22.24;22.62;98131.06;4864033;29;1170;-76
2021/12/17 03:19:13;;;;;;;;;;;;;;;21.57;23.55;98130.75;4858542;29;1549;-76
2021/12/17 03:24:25;;;;;;;;;;;;;;;21.96;23.10;98121.25;4842615;29;1168;-76
2021/12/17 03:26:51;;;;;;;;;;;;;;;21.60;23.54;98118.53;4836855;29;1170;-76
2021/12/17 03:29:17;;;;;;;;;;;;;;;22.18;22.71;98113.03;4852096;29;1974;-76
2021/12/17 03:31:49;;;;;;;;;;;;;;;21.66;23.32;98113.94;4849356;29;1316;-76
2021/12/17 03:36:40;;;;;;;;;;;;;;;21.69;23.13;98121.53;4917319;29;1084;-76
2021/12/17 03:39:06;;;;;;;;;;;;;;;22.27;22.45;98124.50;4941853;28;1313;-76
2021/12/17 03:41:39;;;;;;;;;;;;;;;21.98;22.58;98118.00;4986533;28;1530;-76
2021/12/17 03:44:07;;;;;;;;;;;;;;;22.28;22.59;98119.66;4998159;28;1240;-76
2021/12/17 03:47:08;;;;;;;;;;;;;;;21.80;22.87;98119.22;4939862;29;969;-76
2021/12/17 03:49:59;;;;;;;;;;;;;;;22.00;22.80;98121.16;4904789;29;1910;-76
2021/12/17 03:52:25;;;;;;;;;;;;;;;22.10;22.75;98114.41;4898228;29;1631;-76
2021/12/17 03:54:51;;;;;;;;;;;;;;;22.00;22.70;98119.13;4879893;29;1098;-76
2021/12/17 03:57:18;;;;;;;;;;;;;;;22.22;22.65;98110.88;4880155;29;1239;-76
2021/12/17 03:59:47;;;;;;;;;;;;;;;22.01;22.63;98119.91;4882898;29;1161;-76
2021/12/17 04:02:15;;;;;;;;;;;;;;;21.99;22.82;98122.41;4883077;29;1119;-77
2021/12/17 04:04:41;;;;;;;;;;;;;;;21.85;23.11;98115.88;4858552;29;1454;-76
2021/12/17 04:07:26;;;;;;;;;;;;;;;22.15;22.67;98121.63;4864493;29;1078;-76
2021/12/17 04:10:07;;;;;;;;;;;;;;;21.58;23.13;98118.19;4877503;29;1926;-77
2021/12/17 04:12:47;;;;;;;;;;;;;;;22.07;22.54;98123.78;4845693;29;1396;-76
2021/12/17 04:15:14;;;;;;;;;;;;;;;22.10;22.92;98120.09;4835726;29;1256;-76
2021/12/17 04:17:44;;;;;;;;;;;;;;;22.21;22.55;98126.28;4864030;29;1094;-76
2021/12/17 04:20:10;;;;;;;;;;;;;;;22.21;22.43;98120.63;4872141;29;1148;-76
2021/12/17 04:22:36;;;;;;;;;;;;;;;22.31;22.25;98119.53;4901690;29;957;-77
2021/12/17 04:25:01;;;;;;;;;;;;;;;22.12;22.71;98120.47;4901090;29;1343;-76
2021/12/17 04:27:27;;;;;;;;;;;;;;;21.77;23.16;98120.13;4901612;29;1336;-76
2021/12/17 04:29:56;;;;;;;;;;;;;;;22.00;22.97;98107.00;4913570;29;1971;-76
2021/12/17 04:32:22;;;;;;;;;;;;;;;22.08;22.85;98122.56;4922572;29;1259;-76
2021/12/17 04:34:48;;;;;;;;;;;;;;;21.77;23.24;98114.47;4941603;29;1175;-77
2021/12/17 04:37:16;;;;;;;;;;;;;;;22.07;23.05;98115.31;4920416;29;1069;-77
2021/12/17 04:40:00;;;;;;;;;;;;;;;21.60;23.61;98127.03;4936836;29;1176;-76
2021/12/17 04:45:20;;;;;;;;;;;;;;;21.97;22.90;98141.91;4892219;29;1203;-76
2021/12/17 04:59:16;;;;;;;;;;;;;;;21.63;23.24;98154.47;4863484;29;1479;-77
2021/12/17 05:01:42;;;;;;;;;;;;;;;21.63;23.42;98150.84;4848141;29;1340;-77
2021/12/17 05:04:08;;;;;;;;;;;;;;;21.96;22.85;98148.78;4848511;29;1151;-77
2021/12/17 05:06:34;;;;;;;;;;;;;;;21.98;23.09;98140.66;4845179;29;1693;-77
2021/12/17 05:09:10;;;;;;;;;;;;;;;21.96;22.96;98141.09;4874359;29;1986;-77
2021/12/17 05:19:55;;;;;;;;;;;;;;;21.41;23.46;98139.25;4881496;29;1110;-77
2021/12/17 05:22:21;;;;;;;;;;;;;;;21.76;23.24;98138.38;4856358;29;1406;-77
2021/12/17 05:24:46;;;;;;;;;;;;;;;21.88;22.98;98141.72;4844164;29;1802;-77
2021/12/17 05:27:12;;;;;;;;;;;;;;;21.84;23.28;98142.59;4858929;29;930;-77
2021/12/17 05:29:53;;;;;;;;;;;;;;;22.24;22.50;98135.94;4868430;29;1977;-77
2021/12/17 05:32:18;;;;;;;;;;;;;;;21.68;23.60;98145.44;4881634;29;1283;-77
2021/12/17 05:34:44;;;;;;;;;;;;;;;21.87;23.25;98146.59;4881386;29;1565;-77
2021/12/17 05:37:12;;;;;;;;;;;;;;;21.98;22.85;98140.66;4881099;29;1401;-77
2021/12/17 05:39:37;;;;;;;;;;;;;;;22.06;22.95;98140.00;4888543;29;1834;-77
2021/12/17 05:42:04;;;;;;;;;;;;;;;21.75;22.97;98131.09;4884521;29;1233;-77
2021/12/17 05:44:55;;;;;;;;;;;;;;;21.73;23.16;98127.91;4899313;29;1685;-77
2021/12/17 05:47:21;;;;;;;;;;;;;;;21.96;23.11;98126.13;4881276;29;1268;-77
2021/12/17 05:49:46;;;;;;;;;;;;;;;22.02;22.76;98124.34;4912692;29;1978;-77
2021/12/17 05:52:12;;;;;;;;;;;;;;;22.25;22.69;98129.81;4902783;29;1370;-76
2021/12/17 05:54:37;;;;;;;;;;;;;;;21.83;22.87;98135.34;4899844;29;1493;-77
2021/12/17 05:57:03;;;;;;;;;;;;;;;21.64;23.37;98136.22;4921618;29;1816;-77
2021/12/17 05:59:34;;;;;;;;;;;;;;;21.89;23.29;98144.09;4883534;29;1347;-77
2021/12/17 06:02:04;;;;;;;;;;;;;;;21.94;22.96;98139.94;4899973;29;1726;-77
2021/12/17 06:04:30;;;;;;;;;;;;;;;22.12;22.65;98140.28;4899593;29;1229;-77
2021/12/17 06:07:01;;;;;;;;;;;;;;;21.55;23.57;98142.53;4899786;29;1219;-77
2021/12/17 06:09:26;;;;;;;;;;;;;;;21.91;22.93;98152.16;4899049;29;1903;-77
2021/12/17 06:11:54;;;;;;;;;;;;;;;22.06;22.67;98147.72;4884902;29;1402;-77
2021/12/17 06:14:19;;;;;;;;;;;;;;;22.18;22.77;98152.69;4895880;29;1087;-77
2021/12/17 06:16:45;;;;;;;;;;;;;;;21.75;23.03;98150.13;4880999;29;1362;-77
2021/12/17 06:19:19;;;;;;;;;;;;;;;21.81;23.09;98156.84;4881123;29;1422;-77
2021/12/17 06:21:46;;;;;;;;;;;;;;;22.07;22.61;98155.78;4952495;29;1256;-78
2021/12/17 06:24:12;;;;;;;;;;;;;;;22.36;22.43;98144.50;4959077;28;1511;-77
2021/12/17 06:26:37;;;;;;;;;;;;;;;22.14;22.67;98149.16;4940365;29;1239;-77
2021/12/17 06:29:05;;;;;;;;;;;;;;;22.19;22.65;98140.13;4956678;28;1906;-77
2021/12/17 06:31:31;;;;;;;;;;;;;;;22.32;22.44;98143.00;4955396;28;1618;-76
2021/12/17 06:33:56;;;;;;;;;;;;;;;21.98;22.69;98138.63;5014271;28;1194;-77
2021/12/17 06:36:22;;;;;;;;;;;;;;;21.96;22.85;98131.78;4970291;28;1230;-77
2021/12/17 06:38:48;;;;;;;;;;;;;;;22.23;22.86;98145.69;4955839;29;1475;-76
2021/12/17 06:41:15;;;;;;;;;;;;;;;22.20;22.75;98136.03;4956102;29;1579;-77
2021/12/17 06:43:43;;;;;;;;;;;;;;;22.24;22.74;98131.06;4939771;29;1097;-77
2021/12/17 06:46:25;;;;;;;;;;;;;;;22.28;22.60;98131.78;4956160;29;1136;-77
2021/12/17 06:49:08;;;;;;;;;;;;;;;22.25;22.58;98127.00;4939657;29;1906;-77
2021/12/17 06:54:44;;;;;;;;;;;;;;;22.26;22.76;98139.91;4989611;28;1096;-77
2021/12/17 07:00:35;;;;;;;;;;;;;;;21.76;23.56;98138.38;4966883;28;1583;-76
2021/12/17 07:06:57;;;;;;;;;;;;;;;21.82;23.54;98133.75;4933626;29;939;-77
2021/12/17 07:23:24;;;;;;;;;;;;;;;22.16;22.91;98135.34;4864379;29;1307;-77
2021/12/17 07:34:09;;;;;;;;;;;;;;;21.69;23.60;98130.03;4900995;29;1359;-76
2021/12/17 07:39:16;;;;;;;;;;;;;;;21.93;23.16;98139.16;4902477;29;1107;-77
2021/12/17 07:42:05;;;;;;;;;;;;;;;21.95;23.30;98142.31;4917740;29;1369;-77
2021/12/17 07:44:37;;;;;;;;;;;;;;;22.12;23.17;98123.28;4920672;29;1429;-77
2021/12/17 07:47:23;;;;;;;;;;;;;;;21.44;23.98;98141.16;4917061;29;979;-77
2021/12/17 07:50:17;;;;;;;;;;;;;;;22.07;23.27;98133.13;4898265;29;1972;-73
2021/12/17 07:52:57;;;;;;;;;;;;;;;21.93;23.50;98132.69;4898128;29;1385;-77
2021/12/17 07:55:23;;;;;;;;;;;;;;;21.68;23.49;98145.44;4902434;29;1722;-77
2021/12/17 07:57:50;;;;;;;;;;;;;;;21.44;24.00;98146.84;4951842;29;955;-77
2021/12/17 08:00:22;;;;;;;;;;;;;;;21.14;24.18;98134.56;4955334;28;1310;-77
2021/12/17 08:02:54;;;;;;;;;;;;;;;21.49;23.97;98146.31;4955316;28;1613;-77
2021/12/17 08:05:45;;;;;;;;;;;;;;;21.65;23.66;98134.97;4938936;29;1566;-77
2021/12/17 08:08:11;;;;;;;;;;;;;;;21.79;23.74;98145.16;4916884;29;1139;-76
2021/12/17 08:10:37;;;;;;;;;;;;;;;22.00;23.47;98144.63;4916675;29;1977;-77
2021/12/17 08:13:06;;;;;;;;;;;;;;;22.03;23.28;98137.28;4926206;29;1458;-76
2021/12/17 08:15:37;;;;;;;;;;;;;;;21.82;23.60;98145.09;4937342;29;1034;-77
2021/12/17 08:26:20;;;;;;;;;;;;;;;22.05;23.23;98140.47;4943445;29;1531;-77
2021/12/17 08:31:16;;;;;;;;;;;;;;;22.03;23.53;98134.44;4901653;29;1173;-77
2021/12/17 08:33:43;;;;;;;;;;;;;;;22.21;23.00;98134.78;4901072;29;1603;-77
2021/12/17 08:36:09;;;;;;;;;;;;;;;21.88;23.70;98130.41;4901253;29;1427;-77
2021/12/17 08:38:36;;;;;;;;;;;;;;;21.88;23.77;98121.91;4905708;29;1657;-77
2021/12/17 08:41:12;;;;;;;;;;;;;;;22.02;23.47;98113.00;4919610;29;1444;-77
2021/12/17 08:43:38;;;;;;;;;;;;;;;22.07;23.41;98106.78;4919681;29;1252;-76
2021/12/17 08:46:03;;;;;;;;;;;;;;;22.12;23.21;98111.94;4908656;29;1255;-77
2021/12/17 08:48:48;;;;;;;;;;;;;;;21.91;23.77;98106.81;4927581;29;1981;-75
2021/12/17 08:51:31;;;;;;;;;;;;;;;22.16;23.25;98112.66;4914585;29;1511;-75
2021/12/17 08:53:57;;;;;;;;;;;;;;;22.08;23.51;98099.91;4938628;29;1084;-74
2021/12/17 08:56:31;;;;;;;;;;;;;;;22.18;23.34;98104.53;4961860;28;1533;-75
2021/12/17 08:58:58;;;;;;;;;;;;;;;22.05;23.58;98083.78;4971814;28;1222;-74
2021/12/17 09:01:30;;;;;;;;;;;;;;;22.38;22.76;98083.72;4969568;28;1514;-74
2021/12/17 09:03:56;;;;;;;;;;;;;;;22.16;23.18;98075.81;4938280;29;1056;-74
2021/12/17 09:06:35;;;;;;;;;;;;;;;21.56;23.90;98076.16;4944872;28;1468;-75
2021/12/17 09:09:04;;;;;;;;;;;;;;;21.49;24.38;98065.00;4957010;29;1991;-75
2021/12/17 09:11:32;;;;;;;;;;;;;;;21.56;24.23;98069.72;4935826;29;1286;-74
2021/12/17 09:14:06;;;;;;;;;;;;;;;21.65;23.88;98067.03;4919041;29;1387;-74
2021/12/17 09:16:47;;;;;;;;;;;;;;;22.01;23.57;98066.88;4900299;29;1266;-74
2021/12/17 09:19:17;;;;;;;;;;;;;;;21.81;24.08;98058.53;4884459;29;1396;-74
2021/12/17 09:21:51;;;;;;;;;;;;;;;22.12;23.38;98054.47;4900513;29;1096;-75
2021/12/17 09:24:38;;;;;;;;;;;;;;;21.77;23.74;98049.31;4896773;29;1380;-74
2021/12/17 09:27:18;;;;;;;;;;;;;;;21.36;24.47;98054.84;4886242;29;941;-74
2021/12/17 09:30:06;;;;;;;;;;;;;;;21.98;23.89;98050.78;4909858;29;1973;-75
2021/12/17 09:32:32;;;;;;;;;;;;;;;22.28;23.07;98038.25;4919116;29;927;-74
2021/12/17 09:34:57;;;;;;;;;;;;;;;22.11;23.75;98042.34;4900907;29;1548;-74
2021/12/17 09:37:23;;;;;;;;;;;;;;;21.97;23.85;98042.75;4899926;29;867;-75
2021/12/17 09:39:55;;;;;;;;;;;;;;;21.64;24.28;98037.13;4918632;29;1228;-74
2021/12/17 09:42:21;;;;;;;;;;;;;;;21.96;23.72;98041.13;4945125;28;1003;-74
2021/12/17 09:44:46;;;;;;;;;;;;;;;21.77;23.94;98038.00;4953873;28;954;-75
2021/12/17 09:47:12;;;;;;;;;;;;;;;22.23;23.47;98032.34;4982809;28;1482;-75
2021/12/17 09:49:38;;;;;;;;;;;;;;;21.93;23.95;98030.72;5000658;28;1906;-75
2021/12/17 09:52:04;;;;;;;;;;;;;;;22.01;23.46;98023.59;5015367;28;1137;-74
2021/12/17 09:54:30;;;;;;;;;;;;;;;22.07;23.74;98025.44;5015128;28;959;-75
2021/12/17 09:56:55;;;;;;;;;;;;;;;22.04;23.48;98025.53;5015041;28;981;-74
2021/12/17 09:59:21;;;;;;;;;;;;;;;22.24;23.20;98017.69;5015267;28;963;-74
2021/12/17 10:01:46;;;;;;;;;;;;;;;21.74;24.08;98016.22;4998352;28;1422;-74
2021/12/17 10:04:25;;;;;;;;;;;;;;;21.95;23.75;98012.00;5045832;28;1047;-74
2021/12/17 10:06:51;;;;;;;;;;;;;;;21.83;23.83;98016.38;5054361;28;1018;-74
2021/12/17 10:09:16;;;;;;;;;;;;;;;21.97;23.67;98012.38;5054913;28;1902;-74
2021/12/17 10:12:20;;;;;;;;;;;;;;;21.78;23.97;98002.75;5019591;28;1337;-74
2021/12/17 10:15:07;;;;;;;;;;;;;;;22.14;23.54;98001.81;5033746;28;2031;-75
2021/12/17 10:17:32;;;;;;;;;;;;;;;22.02;23.88;97994.81;5038840;28;1446;-74
2021/12/17 10:19:58;;;;;;;;;;;;;;;22.24;23.23;98012.03;5054548;28;954;-74
2021/12/17 10:22:25;;;;;;;;;;;;;;;22.08;23.66;98009.22;5054597;28;949;-74
2021/12/17 10:25:02;;;;;;;;;;;;;;;22.22;23.33;98010.88;5054492;28;986;-74
2021/12/17 10:27:29;;;;;;;;;;;;;;;22.22;23.38;98010.88;5054116;28;1210;-74
2021/12/17 10:29:54;;;;;;;;;;;;;;;22.29;23.35;98008.66;5054036;28;1967;-74
2021/12/17 10:32:21;;;;;;;;;;;;;;;22.16;23.68;98016.31;5069723;28;1497;-74
2021/12/17 10:35:04;;;;;;;;;;;;;;;21.85;23.89;98013.88;5074537;28;1002;-74
2021/12/17 10:37:33;;;;;;;;;;;;;;;21.93;23.76;98005.22;5073587;28;933;-74
2021/12/17 10:39:59;;;;;;;;;;;;;;;22.30;23.42;98013.06;5073915;28;939;-74
2021/12/17 10:42:37;;;;;;;;;;;;;;;22.14;23.60;98001.81;5074108;28;988;-74
2021/12/17 10:45:05;;;;;;;;;;;;;;;21.81;23.90;98007.56;5068265;28;1019;-74
2021/12/17 10:47:34;;;;;;;;;;;;;;;22.21;23.71;97995.91;5075397;28;1655;-74
2021/12/17 10:50:02;;;;;;;;;;;;;;;22.19;23.58;97994.78;5076143;28;1905;-73
2021/12/17 10:52:39;;;;;;;;;;;;;;;22.18;23.69;97999.66;5092189;28;1182;-74
2021/12/17 10:55:07;;;;;;;;;;;;;;;22.16;23.49;97987.19;5094078;28;943;-74
2021/12/17 10:57:32;;;;;;;;;;;;;;;22.16;23.56;97992.84;5093926;28;929;-74
2021/12/17 10:59:59;;;;;;;;;;;;;;;22.11;23.93;97985.69;5093676;28;1512;-74
2021/12/17 11:02:24;;;;;;;;;;;;;;;21.77;23.95;97981.34;5040137;28;1282;-74
2021/12/17 11:04:51;;;;;;;;;;;;;;;21.76;24.11;97976.94;5056940;28;1319;-74
2021/12/17 11:07:19;;;;;;;;;;;;;;;21.41;24.43;97973.03;5073602;28;963;-74
2021/12/17 11:09:50;;;;;;;;;;;;;;;21.48;24.38;97972.81;5073572;28;1979;-74
2021/12/17 11:12:17;;;;;;;;;;;;;;;21.75;24.09;97983.03;5073500;28;963;-74
2021/12/17 11:14:43;;;;;;;;;;;;;;;21.97;23.82;97980.41;5073418;28;910;-74
2021/12/17 11:17:08;;;;;;;;;;;;;;;22.03;23.61;97984.28;5060307;28;1452;-75
2021/12/17 11:19:36;;;;;;;;;;;;;;;22.10;23.74;97981.22;5053758;28;977;-73
2021/12/17 11:22:05;;;;;;;;;;;;;;;22.07;23.78;97990.63;5053612;28;1101;-74
2021/12/17 11:24:30;;;;;;;;;;;;;;;21.64;24.38;97983.31;5053166;28;1042;-74
2021/12/17 11:26:56;;;;;;;;;;;;;;;21.96;23.91;97978.81;5071186;28;1518;-74
2021/12/17 11:29:21;;;;;;;;;;;;;;;22.14;23.49;97973.47;5073466;28;1906;-74
2021/12/17 11:31:47;;;;;;;;;;;;;;;22.16;23.48;97970.97;5057053;28;1310;-75
2021/12/17 11:34:12;;;;;;;;;;;;;;;21.57;24.53;97969.38;5073572;28;1036;-74
2021/12/17 11:36:38;;;;;;;;;;;;;;;22.05;23.89;97959.13;5073875;28;951;-74
2021/12/17 11:39:21;;;;;;;;;;;;;;;22.19;23.39;97964.41;5073467;28;1027;-74
2021/12/17 11:41:47;;;;;;;;;;;;;;;22.38;23.47;97964.66;5073735;28;988;-74
2021/12/17 11:44:13;;;;;;;;;;;;;;;22.68;22.78;97964.13;5073396;28;906;-74
2021/12/17 11:46:39;;;;;;;;;;;;;;;22.14;23.71;97959.28;5073149;28;1555;-74
2021/12/17 11:49:08;;;;;;;;;;;;;;;21.56;24.37;97962.91;5074192;28;1973;-74
2021/12/17 11:51:34;;;;;;;;;;;;;;;21.18;25.04;97956.19;5076960;28;1215;-74
2021/12/17 11:54:10;;;;;;;;;;;;;;;22.07;23.93;97967.94;5077195;28;951;-74
2021/12/17 11:56:35;;;;;;;;;;;;;;;22.34;23.34;97974.06;5084440;28;1057;-74
2021/12/17 11:59:01;;;;;;;;;;;;;;;22.22;23.63;97969.16;5100060;28;848;-74
2021/12/17 12:01:45;;;;;;;;;;;;;;;22.42;23.42;97971.00;5099406;28;1371;-74
2021/12/17 12:04:43;;;;;;;;;;;;;;;22.30;23.62;97969.75;5099822;28;928;-75
2021/12/17 12:07:12;;;;;;;;;;;;;;;21.84;24.26;97961.31;5037008;28;1064;-74
2021/12/17 12:09:57;;;;;;;;;;;;;;;22.44;23.14;97962.88;5037030;28;1979;-74
2021/12/17 12:12:34;;;;;;;;;;;;;;;22.30;23.41;97970.53;5036713;28;1114;-74
2021/12/17 12:15:19;;;;;;;;;;;;;;;21.99;23.83;97967.38;5036872;28;1018;-74
2021/12/17 12:17:57;;;;;;;;;;;;;;;21.31;24.96;97963.56;5036358;28;1326;-74
2021/12/17 12:20:38;;;;;;;;;;;;;;;21.99;23.89;97956.03;5036659;28;936;-74
2021/12/17 12:23:22;;;;;;;;;;;;;;;21.33;25.02;97949.75;5036583;28;990;-74
2021/12/17 12:26:03;;;;;;;;;;;;;;;22.06;23.94;97949.38;5036976;28;1035;-74
2021/12/17 12:28:40;;;;;;;;;;;;;;;22.09;23.87;97948.47;5036170;28;962;-73
2021/12/17 12:31:06;;;;;;;;;;;;;;;22.07;24.20;97950.94;5036560;28;1906;-74
2021/12/17 12:33:31;;;;;;;;;;;;;;;22.29;23.53;97951.94;5020121;28;1123;-74
2021/12/17 12:35:57;;;;;;;;;;;;;;;22.17;23.86;97954.75;5036974;28;982;-74
2021/12/17 12:38:26;;;;;;;;;;;;;;;22.08;23.68;97946.91;5036136;28;963;-74
2021/12/17 12:40:52;;;;;;;;;;;;;;;22.13;23.76;97954.09;5019610;28;1009;-74
2021/12/17 12:43:33;;;;;;;;;;;;;;;22.39;23.48;97949.25;5044092;28;1115;-75
2021/12/17 12:45:59;;;;;;;;;;;;;;;21.75;24.44;97949.84;5086660;28;1446;-74
2021/12/17 12:48:38;;;;;;;;;;;;;;;21.78;24.40;97946.13;5098625;28;1031;-75
2021/12/17 12:51:17;;;;;;;;;;;;;;;22.08;24.05;97952.56;5064439;28;1910;-75
2021/12/17 12:53:46;;;;;;;;;;;;;;;21.91;24.01;97948.19;5098588;28;891;-74
2021/12/17 12:56:18;;;;;;;;;;;;;;;21.74;24.46;97951.09;5099223;28;871;-74
2021/12/17 12:58:47;;;;;;;;;;;;;;;21.76;24.52;97945.78;5098420;28;885;-75
2021/12/17 13:01:18;;;;;;;;;;;;;;;21.71;24.45;97945.50;5098083;28;1435;-74
2021/12/17 13:03:44;;;;;;;;;;;;;;;22.19;23.74;97941.72;5098517;28;972;-74
2021/12/17 13:06:16;;;;;;;;;;;;;;;22.35;23.64;97935.19;5098769;28;959;-74
2021/12/17 13:08:41;;;;;;;;;;;;;;;22.08;23.57;97924.22;5039019;28;1028;-74
2021/12/17 13:11:07;;;;;;;;;;;;;;;22.03;23.70;97921.94;5056311;28;1895;-74
2021/12/17 13:13:39;;;;;;;;;;;;;;;22.01;24.07;97918.75;5055285;28;992;-74
2021/12/17 13:16:18;;;;;;;;;;;;;;;22.29;23.66;97917.94;5039605;28;1465;-74
2021/12/17 13:24:05;;;;;;;;;;;;;;;22.52;23.16;97924.53;5055547;28;1010;-74
2021/12/17 13:26:30;;;;;;;;;;;;;;;21.77;24.35;97927.53;5055880;28;942;-74
2021/12/17 13:28:56;;;;;;;;;;;;;;;21.52;24.57;97933.09;5055266;28;1975;-74
2021/12/17 13:31:34;;;;;;;;;;;;;;;21.69;24.38;97926.16;5054983;28;1508;-75
2021/12/17 13:34:00;;;;;;;;;;;;;;;22.10;23.80;97938.72;5055554;28;958;-75
2021/12/17 13:36:25;;;;;;;;;;;;;;;21.95;24.00;97938.34;5055435;28;1053;-74
2021/12/17 13:38:57;;;;;;;;;;;;;;;21.24;25.05;97941.09;5061385;28;1106;-74
2021/12/17 13:41:35;;;;;;;;;;;;;;;21.49;24.83;97933.97;5097756;28;866;-74
2021/12/17 13:44:02;;;;;;;;;;;;;;;21.82;24.26;97937.53;5097268;28;945;-74
2021/12/17 13:46:27;;;;;;;;;;;;;;;21.50;24.47;97929.91;5097894;28;1375;-74
2021/12/17 13:48:53;;;;;;;;;;;;;;;21.40;24.59;97936.66;5097975;28;908;-74
2021/12/17 13:51:18;;;;;;;;;;;;;;;21.67;24.28;97928.63;5096727;28;1083;-74
2021/12/17 13:53:44;;;;;;;;;;;;;;;22.06;24.02;97935.19;5097920;28;903;-74
2021/12/17 13:56:14;;;;;;;;;;;;;;;21.27;24.91;97937.34;5098039;28;950;-75
2021/12/17 13:58:39;;;;;;;;;;;;;;;21.24;25.21;97935.44;5054577;28;981;-75
2021/12/17 14:01:05;;;;;;;;;;;;;;;22.01;23.89;97944.25;5054834;28;1467;-75
2021/12/17 14:03:35;;;;;;;;;;;;;;;21.72;24.51;97936.59;5014823;28;1034;-74
2021/12/17 14:06:16;;;;;;;;;;;;;;;21.79;24.42;97936.38;5015887;28;1035;-75
2021/12/17 14:08:42;;;;;;;;;;;;;;;22.00;24.08;97940.63;5014935;28;1025;-74
2021/12/17 14:11:36;;;;;;;;;;;;;;;21.54;24.61;97945.56;5015241;28;1910;-74
2021/12/17 14:14:03;;;;;;;;;;;;;;;21.87;24.29;97939.03;4955313;28;971;-75
2021/12/17 14:16:33;;;;;;;;;;;;;;;22.09;23.98;97937.16;4949403;29;1487;-75
2021/12/17 14:18:59;;;;;;;;;;;;;;;21.66;24.64;97949.72;4937337;29;1115;-74
2021/12/17 14:21:31;;;;;;;;;;;;;;;21.59;24.40;97932.91;4937778;29;997;-74
2021/12/17 14:23:56;;;;;;;;;;;;;;;21.17;25.10;97941.25;4936882;29;1066;-75
2021/12/17 14:26:25;;;;;;;;;;;;;;;21.88;24.13;97943.44;4922151;29;973;-74
2021/12/17 14:28:51;;;;;;;;;;;;;;;22.15;23.99;97955.22;4943558;28;975;-74
2021/12/17 14:31:19;;;;;;;;;;;;;;;21.62;24.62;97954.66;4984301;28;1910;-74
2021/12/17 14:33:48;;;;;;;;;;;;;;;21.37;25.11;97955.34;4995693;28;999;-74
2021/12/17 14:36:14;;;;;;;;;;;;;;;21.32;24.81;97959.50;5014947;28;984;-74
2021/12/17 14:38:49;;;;;;;;;;;;;;;21.14;25.12;97953.47;4994241;28;1011;-74
2021/12/17 14:41:20;;;;;;;;;;;;;;;21.67;24.54;97962.63;4994921;28;985;-75
2021/12/17 14:43:51;;;;;;;;;;;;;;;21.67;24.35;97968.28;4994444;28;1036;-74
2021/12/17 14:46:30;;;;;;;;;;;;;;;21.62;24.75;97968.03;4955971;28;1550;-75
2021/12/17 14:49:12;;;;;;;;;;;;;;;21.19;25.22;97960.63;4955685;29;1983;-75
2021/12/17 15:02:54;;;;;;;;;;;;;;;21.76;24.61;97959.94;4917502;29;1100;-74
2021/12/17 15:05:24;;;;;;;;;;;;;;;21.92;23.97;97966.81;4917660;29;1075;-75
2021/12/17 15:07:50;;;;;;;;;;;;;;;21.54;24.63;97961.75;4902142;29;951;-74
2021/12/17 15:10:16;;;;;;;;;;;;;;;21.36;24.80;97958.63;4917670;29;1907;-74
2021/12/17 15:12:41;;;;;;;;;;;;;;;21.36;25.25;97952.97;4917913;29;1076;-74
2021/12/17 15:15:27;;;;;;;;;;;;;;;21.31;24.89;97946.59;4917238;29;1434;-75
2021/12/17 15:17:53;;;;;;;;;;;;;;;21.65;24.59;97953.75;4951085;29;940;-74
2021/12/17 15:20:20;;;;;;;;;;;;;;;21.74;24.35;97956.75;4936250;29;954;-74
2021/12/17 15:22:45;;;;;;;;;;;;;;;21.46;24.86;97952.66;4936590;29;1084;-74
2021/12/17 15:25:12;;;;;;;;;;;;;;;21.62;24.54;97949.00;4948719;29;1047;-74
2021/12/17 15:27:41;;;;;;;;;;;;;;;21.94;24.19;97955.81;4979016;28;1014;-74
2021/12/17 15:30:10;;;;;;;;;;;;;;;21.53;24.73;97957.34;4957730;28;1979;-74
2021/12/17 15:32:38;;;;;;;;;;;;;;;21.76;24.47;97959.94;4959423;29;971;-74
2021/12/17 15:35:04;;;;;;;;;;;;;;;21.95;23.97;97958.19;4939687;29;966;-74
2021/12/17 15:37:30;;;;;;;;;;;;;;;21.61;24.30;97924.78;4985122;28;1025;-74
2021/12/17 15:39:55;;;;;;;;;;;;;;;21.67;24.46;97962.63;4981440;28;1003;-75
2021/12/17 15:42:20;;;;;;;;;;;;;;;21.50;24.80;97958.22;4998275;28;1027;-75
2021/12/17 15:44:46;;;;;;;;;;;;;;;22.13;23.70;97966.22;4998394;28;1461;-74
2021/12/17 15:47:11;;;;;;;;;;;;;;;21.25;24.98;97958.88;4997788;28;1264;-74
2021/12/17 15:49:37;;;;;;;;;;;;;;;21.56;24.81;97962.91;4997983;28;1899;-74
2021/12/17 15:52:04;;;;;;;;;;;;;;;21.53;24.85;97971.50;5029120;28;1203;-74
2021/12/17 15:54:30;;;;;;;;;;;;;;;21.99;23.84;97972.25;5037255;28;988;-75
2021/12/17 15:56:58;;;;;;;;;;;;;;;21.72;24.51;97970.56;5017241;28;1072;-74
2021/12/17 15:59:23;;;;;;;;;;;;;;;21.56;24.63;97967.78;5023297;28;1624;-74
2021/12/17 16:01:49;;;;;;;;;;;;;;;21.93;24.22;97968.38;5037025;28;1072;-75
2021/12/17 16:04:15;;;;;;;;;;;;;;;21.35;24.95;97963.50;5033579;28;1028;-74
2021/12/17 16:06:40;;;;;;;;;;;;;;;21.02;25.62;97963.47;5017049;28;913;-74